createdAt,value
2019-05-14T00:01:22.184Z,3.65
2019-05-14T00:03:51.600Z,4.03
2019-05-14T00:06:21.923Z,7.03
2019-05-14T00:08:52.158Z,3.53
2019-05-14T00:11:21.935Z,5.67
2019-05-14T00:13:52.011Z,4.30
2019-05-14T00:16:23.838Z,8.03
2019-05-14T00:18:51.221Z,4.93
2019-05-14T00:23:51.393Z,5.16
2019-05-14T00:26:21.484Z,5.90
2019-05-14T00:28:51.233Z,5.53
2019-05-14T00:31:21.388Z,4.20
2019-05-14T00:33:51.301Z,5.67
2019-05-14T00:36:21.513Z,3.77
2019-05-14T00:38:51.295Z,7.92
2019-05-14T00:41:21.490Z,3.98
2019-05-14T00:43:51.389Z,7.12
2019-05-14T00:46:21.170Z,3.98
2019-05-14T00:48:51.408Z,5.35
2019-05-14T00:51:21.464Z,4.57
2019-05-14T00:53:51.567Z,5.20
2019-05-14T00:56:21.630Z,7.53
2019-05-14T00:58:51.941Z,3.70
2019-05-14T01:01:21.471Z,3.98
2019-05-14T01:04:02.916Z,4.30
2019-05-14T01:06:31.643Z,4.30
2019-05-14T01:09:01.534Z,4.13
2019-05-14T01:11:31.607Z,3.93
2019-05-14T01:14:21.092Z,5.35
2019-05-14T01:16:51.413Z,7.07
2019-05-14T01:19:21.397Z,4.50
2019-05-14T01:22:31.657Z,5.17
2019-05-14T01:25:01.561Z,6.92
2019-05-14T01:27:31.716Z,6.28
2019-05-14T01:30:02.105Z,5.30
2019-05-14T01:32:31.496Z,4.80
2019-05-14T01:35:01.405Z,8.50
2019-05-14T01:37:31.105Z,4.73
2019-05-14T01:40:01.215Z,4.43
2019-05-14T01:42:32.112Z,4.60
2019-05-14T01:45:02.566Z,4.70
2019-05-14T01:47:31.847Z,5.10
2019-05-14T01:50:02.146Z,3.87
2019-05-14T01:52:31.826Z,4.10
2019-05-14T01:55:02.180Z,9.10
2019-05-14T01:57:31.176Z,5.53
2019-05-14T02:00:02.324Z,6.53
2019-05-14T02:02:31.321Z,5.15
2019-05-14T02:05:02.036Z,5.60
2019-05-14T02:07:31.443Z,5.00
2019-05-14T02:10:01.149Z,4.80
2019-05-14T02:12:31.587Z,5.20
2019-05-14T02:15:01.931Z,5.43
2019-05-14T02:17:31.789Z,4.55
2019-05-14T02:20:02.052Z,4.65
2019-05-14T02:22:32.010Z,11.77
2019-05-14T02:25:02.344Z,5.25
2019-05-14T02:27:34.766Z,5.53
2019-05-14T02:32:29.959Z,5.30
2019-05-14T02:35:20.174Z,7.00
2019-05-14T02:37:50.491Z,5.53
2019-05-14T02:41:00.028Z,4.50
2019-05-14T02:43:29.431Z,7.47
2019-05-14T02:46:10.663Z,6.13
2019-05-14T02:48:29.549Z,4.60
2019-05-14T02:50:59.778Z,6.27
2019-05-14T02:54:09.881Z,5.00
2019-05-14T02:56:40.249Z,5.05
2019-05-14T02:59:09.987Z,6.80
2019-05-14T03:01:40.521Z,5.35
2019-05-14T03:04:09.351Z,5.87
2019-05-14T03:06:39.696Z,5.75
2019-05-14T03:09:09.908Z,5.33
2019-05-14T03:11:40.436Z,4.83
2019-05-14T03:14:09.326Z,4.60
2019-05-14T03:16:40.168Z,8.60
2019-05-14T03:19:09.949Z,5.33
2019-05-14T03:21:39.728Z,8.83
2019-05-14T03:24:09.657Z,6.30
2019-05-14T03:26:39.815Z,6.53
2019-05-14T03:29:10.054Z,7.10
2019-05-14T03:31:53.310Z,5.53
2019-05-14T03:34:22.620Z,8.10
2019-05-14T03:36:53.202Z,6.90
2019-05-14T03:39:21.730Z,6.40
2019-05-14T03:41:50.242Z,5.90
2019-05-14T03:44:20.128Z,7.92
2019-05-14T03:46:54.724Z,6.37
2019-05-14T03:49:19.799Z,6.60
2019-05-14T03:51:49.826Z,6.13
2019-05-14T03:54:19.475Z,8.48
2019-05-14T03:56:49.710Z,6.20
2019-05-14T03:59:19.905Z,6.85
2019-05-14T04:01:51.186Z,6.30
2019-05-14T04:04:19.570Z,7.87
2019-05-14T04:07:22.499Z,7.62
2019-05-14T04:10:24.073Z,8.03
2019-05-14T04:13:29.985Z,6.17
2019-05-14T04:15:59.742Z,5.53
2019-05-14T04:21:48.824Z,5.75
2019-05-14T04:24:15.567Z,6.90
2019-05-14T04:27:23.897Z,5.87
2019-05-14T04:30:32.212Z,5.42
2019-05-14T04:33:33.774Z,5.83
2019-05-14T04:36:02.075Z,6.55
2019-05-14T04:38:30.443Z,5.40
2019-05-14T04:40:59.891Z,6.67
2019-05-14T04:43:29.622Z,5.80
2019-05-14T04:45:59.354Z,10.80
2019-05-14T04:48:37.145Z,5.30
2019-05-14T04:51:00.534Z,7.43
2019-05-14T04:53:30.808Z,6.00
2019-05-14T04:56:00.050Z,4.87
2019-05-14T04:58:29.826Z,6.13
2019-05-14T05:01:00.645Z,5.90
2019-05-14T05:18:49.588Z,4.83
2019-05-14T05:24:20.300Z,5.77
2019-05-14T05:36:52.075Z,3.90
2019-05-14T05:39:20.699Z,4.30
2019-05-14T05:41:49.315Z,5.35
2019-05-14T05:44:32.481Z,4.43
2019-05-14T05:47:00.736Z,3.97
2019-05-14T05:49:29.330Z,4.23
2019-05-14T06:01:21.812Z,4.87
2019-05-14T06:07:02.388Z,3.10
2019-05-14T06:09:29.076Z,4.33
2019-05-14T06:20:18.943Z,3.65
2019-05-14T06:25:36.136Z,4.37
2019-05-14T06:28:04.403Z,3.37
2019-05-14T06:33:39.350Z,4.53
2019-05-14T06:36:08.596Z,3.80
2019-05-14T06:38:38.815Z,3.30
2019-05-14T06:44:18.720Z,4.07
2019-05-14T06:49:44.998Z,2.67
2019-05-14T06:52:13.281Z,3.53
2019-05-14T06:54:41.567Z,3.30
2019-05-14T06:57:09.828Z,3.20
2019-05-14T07:02:28.479Z,3.60
2019-05-14T07:04:58.814Z,3.80
2019-05-14T07:07:29.693Z,3.92
2019-05-14T07:09:58.210Z,3.52
2019-05-14T07:18:19.358Z,3.07
2019-05-14T07:23:50.693Z,3.02
2019-05-14T07:29:34.888Z,2.55
2019-05-14T07:32:03.174Z,3.17
2019-05-14T07:35:12.280Z,2.63
2019-05-14T07:40:52.602Z,2.80
2019-05-14T07:49:15.655Z,2.30
2019-05-14T07:55:02.526Z,2.00
2019-05-14T07:57:49.934Z,2.63
2019-05-14T08:03:19.288Z,1.70
2019-05-14T08:05:48.298Z,2.47
2019-05-14T08:18:52.157Z,1.93
2019-05-14T08:24:39.616Z,2.17
2019-05-14T08:27:08.510Z,2.40
2019-05-14T08:29:54.988Z,2.33
2019-05-14T08:32:23.273Z,2.17
2019-05-14T08:38:45.350Z,3.40
2019-05-14T08:41:59.542Z,2.47
2019-05-14T08:47:29.419Z,2.47
2019-05-14T08:52:54.325Z,2.90
2019-05-14T08:58:39.776Z,2.30
2019-05-14T09:01:08.389Z,2.73
2019-05-14T09:03:39.333Z,1.80
2019-05-14T09:06:09.114Z,1.87
2019-05-14T09:08:39.012Z,1.93
2019-05-14T09:11:09.972Z,4.90
2019-05-14T09:13:38.615Z,1.73
2019-05-14T09:22:02.490Z,2.10
2019-05-14T09:24:30.789Z,2.90
2019-05-14T09:26:59.426Z,2.20
2019-05-14T09:29:29.706Z,2.07
2019-05-14T09:31:59.397Z,2.47
2019-05-14T09:37:19.212Z,1.53
2019-05-14T09:39:48.850Z,1.77
2019-05-14T09:42:50.927Z,2.50
2019-05-14T09:45:19.210Z,1.30
2019-05-14T09:47:50.542Z,1.30
2019-05-14T09:53:38.567Z,1.47
2019-05-14T09:59:32.135Z,1.90
2019-05-14T10:04:53.670Z,1.53
2019-05-14T10:07:55.467Z,1.98
2019-05-14T10:10:23.827Z,1.67
2019-05-14T10:12:56.877Z,1.87
2019-05-14T10:18:28.557Z,1.60
2019-05-14T10:23:47.245Z,1.23
2019-05-14T10:26:18.345Z,2.03
2019-05-14T10:29:28.579Z,1.50
2019-05-14T10:31:59.237Z,1.43
2019-05-14T10:34:28.704Z,1.00
2019-05-14T10:37:10.173Z,1.35
2019-05-14T10:39:39.323Z,1.63
2019-05-14T10:42:29.390Z,1.37
2019-05-14T10:50:57.305Z,1.50
2019-05-14T10:54:16.862Z,2.00
2019-05-14T10:57:13.940Z,1.73
2019-05-14T10:59:42.243Z,1.40
2019-05-14T11:02:12.163Z,1.47
2019-05-14T11:07:10.615Z,1.10
2019-05-14T11:13:03.567Z,2.30
2019-05-14T11:15:31.932Z,0.90
2019-05-14T11:18:40.528Z,1.87
2019-05-14T11:24:21.100Z,1.20
2019-05-14T11:26:49.395Z,1.80
2019-05-14T11:29:19.744Z,1.63
2019-05-14T11:32:29.244Z,1.52
2019-05-14T11:35:19.186Z,2.60
2019-05-14T11:37:48.026Z,1.37
2019-05-14T11:43:03.370Z,1.20
2019-05-14T11:48:20.699Z,1.47
2019-05-14T11:51:09.166Z,1.53
2019-05-14T11:53:38.688Z,1.47
2019-05-14T11:56:08.916Z,1.70
2019-05-14T12:02:02.859Z,3.13
2019-05-14T12:04:31.481Z,1.93
2019-05-14T12:10:09.045Z,1.30
2019-05-14T12:12:37.541Z,1.57
2019-05-14T12:15:48.328Z,1.93
2019-05-14T12:18:18.390Z,2.67
2019-05-14T12:21:08.764Z,2.08
2019-05-14T12:24:13.718Z,1.57
2019-05-14T12:35:20.319Z,1.30
2019-05-14T12:37:48.892Z,1.53
2019-05-14T12:47:35.271Z,1.75
2019-05-14T12:53:19.935Z,1.72
2019-05-14T12:58:34.653Z,1.75
2019-05-14T13:03:48.522Z,1.90
2019-05-14T13:06:19.099Z,1.65
2019-05-14T13:08:49.155Z,1.75
2019-05-14T13:11:17.491Z,1.52
2019-05-14T13:13:49.006Z,2.17
2019-05-14T13:16:19.257Z,1.63
2019-05-14T13:18:49.887Z,1.20
2019-05-14T13:24:04.739Z,2.25
2019-05-14T13:26:33.086Z,1.47
2019-05-14T13:29:01.421Z,1.32
2019-05-14T13:31:29.691Z,2.17
2019-05-14T13:34:39.709Z,3.00
2019-05-14T13:40:50.308Z,1.10
2019-05-14T13:46:05.126Z,1.57
2019-05-14T13:49:14.536Z,2.03
2019-05-14T13:52:03.787Z,2.42
2019-05-14T13:54:32.101Z,1.30
2019-05-14T13:59:49.291Z,1.98
2019-05-14T14:08:10.804Z,2.40
2019-05-14T14:10:44.795Z,1.00
2019-05-14T14:13:11.230Z,3.60
2019-05-14T14:15:39.407Z,1.30
2019-05-14T14:18:07.731Z,1.40
2019-05-14T14:20:36.073Z,1.92
2019-05-14T14:23:39.318Z,1.20
2019-05-14T14:26:09.485Z,1.85
2019-05-14T14:28:52.703Z,1.65
2019-05-14T14:34:22.556Z,1.77
2019-05-14T14:37:10.140Z,1.80
2019-05-14T14:39:38.397Z,2.43
2019-05-14T14:45:29.261Z,1.30
2019-05-14T14:51:41.856Z,1.33
2019-05-14T14:54:10.569Z,2.10
2019-05-14T14:56:52.695Z,1.27
2019-05-14T15:02:53.539Z,2.13
2019-05-14T15:05:21.898Z,1.53
2019-05-14T15:07:50.518Z,2.10
2019-05-14T15:15:52.743Z,2.43
2019-05-14T15:21:09.815Z,1.90
2019-05-14T15:23:42.533Z,2.20
2019-05-14T15:26:23.588Z,1.57
2019-05-14T15:28:51.887Z,1.53
2019-05-14T15:34:08.945Z,2.67
2019-05-14T15:36:41.337Z,1.83
2019-05-14T15:42:13.681Z,3.33
2019-05-14T15:44:48.992Z,2.90
2019-05-14T15:47:11.607Z,3.27
2019-05-14T15:49:38.982Z,1.97
2019-05-14T15:52:08.587Z,1.47
2019-05-14T15:54:46.410Z,2.10
2019-05-14T15:57:08.983Z,2.03
2019-05-14T15:59:39.097Z,1.27
2019-05-14T16:02:41.055Z,1.47
2019-05-14T16:05:43.525Z,1.97
2019-05-14T16:08:11.904Z,1.80
2019-05-14T16:10:40.224Z,1.70
2019-05-14T16:13:09.016Z,2.75
2019-05-14T16:22:02.223Z,1.30
2019-05-14T16:27:51.826Z,2.00
2019-05-14T16:30:20.125Z,1.43
2019-05-14T16:33:29.222Z,2.20
2019-05-14T16:38:44.094Z,2.10
2019-05-14T16:41:12.394Z,1.13
2019-05-14T16:43:40.656Z,1.57
2019-05-14T16:46:09.790Z,1.20
2019-05-14T16:49:12.895Z,1.37
2019-05-14T16:51:41.018Z,1.80
2019-05-14T16:54:29.486Z,1.87
2019-05-14T16:57:11.336Z,2.95
2019-05-14T16:59:53.808Z,1.03
2019-05-14T17:02:22.040Z,2.00
2019-05-14T17:07:45.140Z,2.00
2019-05-14T17:10:49.758Z,2.50
2019-05-14T17:13:18.076Z,3.10
2019-05-14T17:15:48.127Z,1.50
2019-05-14T17:18:19.117Z,2.67
2019-05-14T17:20:48.705Z,2.00
2019-05-14T17:26:24.813Z,1.30
2019-05-14T17:28:53.099Z,1.90
2019-05-14T17:31:21.311Z,1.73
2019-05-14T17:33:49.629Z,2.04
2019-05-14T17:36:18.759Z,1.63
2019-05-14T17:39:21.273Z,1.17
2019-05-14T17:45:24.999Z,1.77
2019-05-14T17:48:12.724Z,1.73
2019-05-14T17:50:44.630Z,2.50
2019-05-14T17:53:11.511Z,1.57
2019-05-14T17:55:46.658Z,1.30
2019-05-14T18:04:02.405Z,3.12
2019-05-14T18:06:30.672Z,3.02
2019-05-14T18:08:59.005Z,1.70
2019-05-14T18:11:28.356Z,3.50
2019-05-14T18:13:58.960Z,2.62
2019-05-14T18:19:37.864Z,1.10
2019-05-14T18:22:05.700Z,1.57
2019-05-14T18:24:33.968Z,1.17
2019-05-14T18:29:51.205Z,1.65
2019-05-14T18:32:19.476Z,1.30
2019-05-14T18:34:48.675Z,1.87
2019-05-14T18:37:18.338Z,1.20
2019-05-14T18:39:48.343Z,2.22
2019-05-14T18:42:19.065Z,1.20
2019-05-14T18:44:49.762Z,1.10
2019-05-14T18:47:20.133Z,2.20
2019-05-14T18:49:48.731Z,2.15
2019-05-14T18:52:18.530Z,2.58
2019-05-14T18:54:48.318Z,1.85
2019-05-14T18:57:18.070Z,1.73
2019-05-14T18:59:49.311Z,1.20
2019-05-14T19:02:18.438Z,2.17
2019-05-14T19:08:28.611Z,1.65
2019-05-14T19:11:15.977Z,1.22
2019-05-14T19:13:45.069Z,2.20
2019-05-14T19:16:13.333Z,1.90
2019-05-14T19:21:48.846Z,1.40
2019-05-14T19:24:18.865Z,3.45
2019-05-14T19:26:49.420Z,1.30
2019-05-14T19:32:28.259Z,1.10
2019-05-14T19:34:57.715Z,1.72
2019-05-14T19:37:26.241Z,1.37
2019-05-14T19:39:58.741Z,1.50
2019-05-14T19:48:38.245Z,1.63
2019-05-14T19:51:08.198Z,1.40
2019-05-14T19:53:39.000Z,1.30
2019-05-14T19:56:06.606Z,1.27
2019-05-14T19:58:34.885Z,1.27
2019-05-14T20:06:53.549Z,1.30
2019-05-14T20:09:21.825Z,1.90
2019-05-14T20:11:50.094Z,1.10
2019-05-14T20:14:18.377Z,1.15
2019-05-14T20:19:42.183Z,1.43
2019-05-14T20:22:10.458Z,1.77
2019-05-14T20:24:41.531Z,2.50
2019-05-14T20:27:12.120Z,1.30
2019-05-14T20:29:38.756Z,1.60
2019-05-14T20:35:30.849Z,3.70
2019-05-14T20:37:49.357Z,2.10
2019-05-14T20:43:31.720Z,1.80
2019-05-14T20:45:59.999Z,1.70
2019-05-14T20:48:28.270Z,2.20
2019-05-14T20:50:58.481Z,2.05
2019-05-14T20:56:15.407Z,3.27
2019-05-14T21:01:41.919Z,1.40
2019-05-14T21:04:10.227Z,1.20
2019-05-14T21:06:39.408Z,1.70
2019-05-14T21:09:07.711Z,1.47
2019-05-14T21:11:38.243Z,1.30
2019-05-14T21:14:26.328Z,1.70
2019-05-14T21:19:56.484Z,2.50
2019-05-14T21:22:24.792Z,1.73
2019-05-14T21:27:52.062Z,2.50
2019-05-14T21:33:39.013Z,1.80
2019-05-14T21:36:09.428Z,2.03
2019-05-14T21:44:31.032Z,2.27
2019-05-14T21:46:59.353Z,1.53
2019-05-14T21:56:06.848Z,2.57
2019-05-14T22:04:58.240Z,1.77
2019-05-14T22:07:27.647Z,3.15
2019-05-14T22:09:58.240Z,2.60
2019-05-14T22:12:48.774Z,2.33
2019-05-14T22:15:18.480Z,1.80
2019-05-14T22:17:48.961Z,1.75
2019-05-14T22:20:19.255Z,2.40
2019-05-14T22:22:48.356Z,2.60
2019-05-14T22:25:19.021Z,2.33
2019-05-14T22:28:12.324Z,2.20
2019-05-14T22:30:38.868Z,2.13
2019-05-14T22:33:08.542Z,2.20
2019-05-14T22:38:35.830Z,1.70
2019-05-14T22:44:00.445Z,3.50
2019-05-14T22:49:16.053Z,2.70
2019-05-14T22:51:44.350Z,2.60
2019-05-14T22:54:12.697Z,2.60
2019-05-14T22:59:28.518Z,2.22
2019-05-14T23:01:58.837Z,3.40
2019-05-14T23:04:28.810Z,2.85
2019-05-14T23:06:58.671Z,3.20
2019-05-14T23:09:26.799Z,4.35
2019-05-14T23:11:55.078Z,2.43
2019-05-14T23:14:23.375Z,2.23
2019-05-14T23:16:54.203Z,2.37
2019-05-14T23:19:22.499Z,2.37
2019-05-14T23:21:50.785Z,2.97
2019-05-14T23:34:00.656Z,3.15
2019-05-14T23:36:29.271Z,2.40
2019-05-14T23:39:38.329Z,3.35
2019-05-14T23:42:08.968Z,2.10
2019-05-14T23:44:38.240Z,2.70
2019-05-14T23:47:08.271Z,2.50
2019-05-14T23:53:00.069Z,2.40
2019-05-14T23:55:49.246Z,2.40
2019-05-14T23:58:20.580Z,3.63
